createdAt,value
2022-07-26T00:00:42.998Z,26.20
2022-07-26T00:03:44.200Z,11.15
2022-07-26T00:06:45.284Z,12.15
2022-07-26T00:09:48.532Z,7.95
2022-07-26T00:12:49.599Z,11.02
2022-07-26T00:15:51.319Z,10.27
2022-07-26T00:18:52.977Z,8.77
2022-07-26T00:22:14.038Z,14.73
2022-07-26T00:25:15.000Z,25.90
2022-07-26T00:28:16.478Z,13.13
2022-07-26T00:31:17.943Z,13.38
2022-07-26T00:34:19.191Z,14.23
2022-07-26T00:37:21.385Z,9.88
2022-07-26T00:40:23.103Z,7.75
2022-07-26T00:43:24.512Z,11.52
2022-07-26T00:46:26.518Z,9.73
2022-07-26T00:49:27.631Z,14.13
2022-07-26T00:52:29.119Z,8.25
2022-07-26T00:55:30.084Z,8.77
2022-07-26T00:58:31.288Z,15.63
2022-07-26T01:01:32.677Z,11.80
2022-07-26T01:04:35.099Z,9.82
2022-07-26T01:07:38.831Z,9.88
2022-07-26T01:10:40.252Z,11.48
2022-07-26T01:13:50.207Z,9.57
2022-07-26T01:16:52.389Z,7.43
2022-07-26T01:19:53.540Z,8.52
2022-07-26T01:22:54.931Z,7.65
2022-07-26T01:25:55.870Z,7.47
2022-07-26T01:28:57.651Z,8.32
2022-07-26T01:31:58.792Z,7.45
2022-07-26T01:34:59.540Z,12.85
2022-07-26T01:38:00.811Z,10.15
2022-07-26T01:41:01.633Z,6.97
2022-07-26T01:44:03.808Z,8.90
2022-07-26T01:47:05.103Z,11.52
2022-07-26T01:50:08.652Z,9.52
2022-07-26T01:53:09.847Z,12.20
2022-07-26T01:56:11.149Z,8.63
2022-07-26T01:59:12.446Z,9.60
2022-07-26T02:02:13.339Z,9.45
2022-07-26T02:05:14.448Z,14.25
2022-07-26T02:08:15.721Z,9.65
2022-07-26T02:11:16.899Z,10.25
2022-07-26T02:14:26.017Z,12.60
2022-07-26T02:17:29.253Z,8.07
2022-07-26T02:20:33.345Z,8.73
2022-07-26T02:23:41.275Z,9.95
2022-07-26T02:26:43.017Z,12.75
2022-07-26T02:29:44.949Z,10.25
2022-07-26T02:32:46.345Z,9.38
2022-07-26T02:35:48.459Z,8.98
2022-07-26T02:38:49.705Z,9.07
2022-07-26T02:41:50.505Z,10.45
2022-07-26T02:44:51.310Z,8.02
2022-07-26T02:47:54.829Z,7.95
2022-07-26T02:50:56.085Z,10.05
2022-07-26T02:53:56.961Z,16.77
2022-07-26T02:56:58.177Z,8.68
2022-07-26T02:59:59.425Z,7.88
2022-07-26T03:03:01.079Z,6.82
2022-07-26T03:06:02.183Z,7.50
2022-07-26T03:09:04.777Z,11.60
2022-07-26T03:12:06.238Z,7.75
2022-07-26T03:15:09.128Z,10.13
2022-07-26T03:18:10.074Z,6.18
2022-07-26T03:21:10.940Z,10.93
2022-07-26T03:24:12.174Z,9.65
2022-07-26T03:27:13.898Z,9.23
2022-07-26T03:30:15.950Z,8.38
2022-07-26T03:33:25.729Z,7.25
2022-07-26T03:36:26.708Z,8.90
2022-07-26T03:39:28.016Z,11.98
2022-07-26T03:42:29.421Z,6.70
2022-07-26T03:45:30.931Z,6.30
2022-07-26T03:48:31.924Z,6.45
2022-07-26T03:51:34.151Z,9.38
2022-07-26T03:54:34.911Z,8.40
2022-07-26T03:57:36.226Z,5.82
2022-07-26T04:00:37.121Z,6.22
2022-07-26T04:03:38.501Z,5.97
2022-07-26T04:06:41.526Z,8.10
2022-07-26T04:09:44.007Z,6.43
2022-07-26T04:12:45.228Z,6.45
2022-07-26T04:15:47.308Z,6.90
2022-07-26T04:18:48.352Z,10.77
2022-07-26T04:21:49.591Z,6.72
2022-07-26T04:24:50.817Z,7.28
2022-07-26T04:27:52.053Z,8.35
2022-07-26T04:30:53.042Z,6.65
2022-07-26T04:33:54.238Z,8.38
2022-07-26T04:36:55.543Z,7.28
2022-07-26T04:39:56.538Z,7.35
2022-07-26T04:42:58.109Z,10.95
2022-07-26T04:46:00.691Z,6.20
2022-07-26T04:49:01.841Z,7.95
2022-07-26T04:52:03.226Z,8.48
2022-07-26T04:55:06.335Z,6.95
2022-07-26T04:58:08.042Z,6.40
2022-07-26T05:01:10.817Z,7.20
2022-07-26T05:04:12.414Z,6.80
2022-07-26T05:07:13.620Z,8.32
2022-07-26T05:10:18.723Z,5.63
2022-07-26T05:13:29.576Z,5.20
2022-07-26T05:16:31.615Z,7.43
2022-07-26T05:19:32.696Z,5.30
2022-07-26T05:22:35.863Z,3.10
2022-07-26T05:25:38.038Z,4.70
2022-07-26T05:28:40.317Z,2.88
2022-07-26T05:31:42.448Z,4.30
2022-07-26T05:34:43.447Z,3.33
2022-07-26T05:37:44.299Z,2.72
2022-07-26T05:40:50.330Z,2.78
2022-07-26T05:43:52.318Z,2.57
2022-07-26T05:47:08.375Z,3.22
2022-07-26T05:50:10.279Z,3.40
2022-07-26T05:53:11.240Z,2.20
2022-07-26T05:56:12.756Z,2.63
2022-07-26T05:59:13.821Z,2.83
2022-07-26T06:02:14.750Z,3.78
2022-07-26T06:05:16.082Z,5.03
2022-07-26T06:08:18.691Z,4.30
2022-07-26T06:11:19.500Z,4.80
2022-07-26T06:14:21.327Z,5.05
2022-07-26T06:17:22.156Z,7.97
2022-07-26T06:20:23.781Z,6.70
2022-07-26T06:23:33.832Z,7.05
2022-07-26T06:26:36.185Z,11.88
2022-07-26T06:29:36.979Z,5.13
2022-07-26T06:32:37.882Z,12.23
2022-07-26T06:35:42.346Z,6.78
2022-07-26T06:38:43.566Z,5.55
2022-07-26T06:41:44.861Z,4.85
2022-07-26T06:44:45.735Z,5.70
2022-07-26T06:47:46.860Z,5.53
2022-07-26T06:50:48.037Z,7.72
2022-07-26T06:53:49.531Z,5.78
2022-07-26T06:56:50.750Z,4.07
2022-07-26T06:59:51.712Z,4.63
2022-07-26T07:02:52.801Z,3.35
2022-07-26T07:05:53.731Z,5.55
2022-07-26T07:08:55.005Z,5.47
2022-07-26T07:12:05.413Z,4.30
2022-07-26T07:15:12.387Z,3.75
2022-07-26T07:18:13.375Z,3.30
2022-07-26T07:21:14.563Z,6.90
2022-07-26T07:24:16.173Z,2.63
2022-07-26T07:27:17.629Z,6.55
2022-07-26T07:30:18.563Z,3.30
2022-07-26T07:33:23.347Z,3.05
2022-07-26T07:36:27.123Z,5.82
2022-07-26T07:39:34.933Z,5.13
2022-07-26T07:42:40.040Z,4.90
2022-07-26T07:45:41.158Z,3.45
2022-07-26T07:48:47.399Z,7.43
2022-07-26T07:51:49.161Z,4.22
2022-07-26T07:54:50.077Z,3.60
2022-07-26T07:57:51.170Z,5.53
2022-07-26T08:00:53.593Z,5.50
2022-07-26T08:03:54.651Z,2.80
2022-07-26T08:06:55.724Z,5.15
2022-07-26T08:09:58.475Z,4.93
2022-07-26T08:12:59.265Z,3.47
2022-07-26T08:16:00.852Z,2.75
2022-07-26T08:19:02.215Z,3.20
2022-07-26T08:22:04.568Z,3.85
2022-07-26T08:25:07.662Z,4.82
2022-07-26T08:28:19.722Z,3.03
2022-07-26T08:31:29.858Z,3.00
2022-07-26T08:34:30.742Z,4.80
2022-07-26T08:37:32.122Z,3.28
2022-07-26T08:40:34.017Z,2.90
2022-07-26T08:43:52.385Z,2.92
2022-07-26T08:46:54.414Z,2.90
2022-07-26T08:49:55.062Z,3.20
2022-07-26T08:53:04.232Z,2.92
2022-07-26T08:56:07.499Z,3.08
2022-07-26T08:59:21.708Z,8.68
2022-07-26T09:02:23.575Z,4.35
2022-07-26T09:05:32.109Z,3.42
2022-07-26T09:08:33.311Z,3.15
2022-07-26T09:11:34.523Z,3.17
2022-07-26T09:14:37.936Z,3.50
2022-07-26T09:17:46.018Z,3.60
2022-07-26T09:20:48.163Z,8.23
2022-07-26T09:23:48.923Z,4.00
2022-07-26T09:26:57.455Z,2.75
2022-07-26T09:30:07.915Z,3.72
2022-07-26T09:33:08.966Z,3.88
2022-07-26T09:36:10.132Z,4.03
2022-07-26T09:39:11.363Z,3.40
2022-07-26T09:42:28.602Z,3.35
2022-07-26T09:45:36.442Z,3.10
2022-07-26T09:49:08.215Z,2.97
2022-07-26T09:52:02.101Z,2.83
2022-07-26T09:55:07.759Z,4.18
2022-07-26T09:58:08.930Z,6.28
2022-07-26T10:01:09.698Z,3.17
2022-07-26T10:04:11.731Z,6.88
2022-07-26T10:07:12.997Z,2.90
2022-07-26T10:10:23.675Z,3.45
2022-07-26T10:13:28.445Z,3.92
2022-07-26T10:16:32.131Z,3.75
2022-07-26T10:19:45.565Z,3.70
2022-07-26T10:22:50.616Z,2.85
2022-07-26T10:25:51.987Z,3.50
2022-07-26T10:28:53.340Z,3.17
2022-07-26T10:32:04.064Z,3.63
2022-07-26T10:35:43.649Z,4.22
2022-07-26T10:39:04.755Z,2.83
2022-07-26T10:42:11.595Z,3.13
2022-07-26T10:45:22.878Z,2.70
2022-07-26T10:48:24.998Z,3.10
2022-07-26T10:51:35.456Z,3.83
2022-07-26T10:54:58.302Z,4.65
2022-07-26T10:57:59.081Z,2.95
2022-07-26T11:01:03.400Z,3.25
2022-07-26T11:04:06.515Z,3.00
2022-07-26T11:07:07.793Z,3.08
2022-07-26T11:10:09.616Z,2.75
2022-07-26T11:13:23.908Z,2.60
2022-07-26T11:16:24.877Z,2.78
2022-07-26T11:19:26.595Z,2.83
2022-07-26T11:22:36.005Z,2.25
2022-07-26T11:25:37.205Z,2.95
2022-07-26T11:29:03.960Z,3.15
2022-07-26T11:32:21.992Z,3.20
2022-07-26T11:35:23.375Z,2.20
2022-07-26T11:38:52.819Z,2.30
2022-07-26T11:42:16.379Z,2.00
2022-07-26T11:45:17.417Z,2.97
2022-07-26T11:48:18.212Z,1.90
2022-07-26T11:51:22.856Z,2.30
2022-07-26T11:54:31.681Z,4.78
2022-07-26T11:57:33.119Z,1.90
2022-07-26T12:00:34.646Z,2.50
2022-07-26T12:03:41.282Z,2.95
2022-07-26T12:06:42.216Z,2.42
2022-07-26T12:09:50.842Z,2.17
2022-07-26T12:13:08.276Z,2.10
2022-07-26T12:16:09.223Z,2.40
2022-07-26T12:19:19.435Z,2.33
2022-07-26T12:22:23.596Z,2.47
2022-07-26T12:25:30.035Z,5.20
2022-07-26T12:28:43.332Z,2.58
2022-07-26T12:31:44.554Z,2.78
2022-07-26T12:35:11.658Z,4.40
2022-07-26T12:38:13.019Z,2.88
2022-07-26T12:41:31.457Z,5.50
2022-07-26T12:44:32.545Z,2.55
2022-07-26T12:47:34.586Z,2.42
2022-07-26T12:50:35.758Z,3.08
2022-07-26T12:53:37.283Z,2.97
2022-07-26T12:56:38.487Z,3.33
2022-07-26T12:59:44.922Z,3.22
2022-07-26T13:02:46.984Z,11.00
2022-07-26T13:05:48.089Z,2.33
2022-07-26T13:08:50.161Z,2.17
2022-07-26T13:11:51.958Z,2.60
2022-07-26T13:14:53.497Z,2.40
2022-07-26T13:17:54.332Z,3.83
2022-07-26T13:20:57.406Z,2.88
2022-07-26T13:23:58.516Z,5.28
2022-07-26T13:27:01.304Z,2.80
2022-07-26T13:30:03.938Z,2.45
2022-07-26T13:33:05.502Z,2.72
2022-07-26T13:36:06.590Z,2.67
2022-07-26T13:39:08.398Z,3.10
2022-07-26T13:42:10.095Z,2.40
2022-07-26T13:45:11.671Z,3.95
2022-07-26T13:48:12.706Z,2.70
2022-07-26T13:51:14.486Z,2.90
2022-07-26T13:54:18.200Z,2.60
2022-07-26T13:57:19.384Z,2.75
2022-07-26T14:00:20.262Z,2.60
2022-07-26T14:03:21.613Z,2.92
2022-07-26T14:06:23.084Z,2.45
2022-07-26T14:09:24.839Z,3.75
2022-07-26T14:12:26.151Z,4.82
2022-07-26T14:15:27.388Z,2.40
2022-07-26T14:18:28.383Z,3.75
2022-07-26T14:21:38.731Z,2.63
2022-07-26T14:24:50.008Z,2.28
2022-07-26T14:27:52.675Z,2.60
2022-07-26T14:30:53.610Z,2.28
2022-07-26T14:33:54.412Z,2.50
2022-07-26T14:36:55.805Z,2.35
2022-07-26T14:39:56.851Z,3.95
2022-07-26T14:42:58.266Z,2.63
2022-07-26T14:45:59.165Z,2.58
2022-07-26T14:49:00.045Z,4.10
2022-07-26T14:52:01.953Z,2.17
2022-07-26T14:55:02.763Z,2.50
2022-07-26T14:58:04.078Z,3.30
2022-07-26T15:01:05.537Z,2.60
2022-07-26T15:04:08.328Z,2.35
2022-07-26T15:07:10.026Z,2.85
2022-07-26T15:10:14.229Z,5.78
2022-07-26T15:13:15.386Z,3.50
2022-07-26T15:16:16.512Z,3.45
2022-07-26T15:19:19.925Z,2.65
2022-07-26T15:22:24.673Z,2.70
2022-07-26T15:25:26.287Z,2.60
2022-07-26T15:28:27.596Z,2.72
2022-07-26T15:31:36.625Z,2.80
2022-07-26T15:34:38.965Z,2.50
2022-07-26T15:37:40.183Z,2.47
2022-07-26T15:40:41.574Z,4.22
2022-07-26T15:43:44.077Z,10.25
2022-07-26T15:46:50.194Z,2.50
2022-07-26T15:49:51.527Z,5.28
2022-07-26T15:52:52.903Z,2.50
2022-07-26T15:55:54.165Z,3.65
2022-07-26T15:58:55.126Z,3.08
2022-07-26T16:01:56.430Z,4.07
2022-07-26T16:04:57.694Z,2.75
2022-07-26T16:07:58.561Z,2.88
2022-07-26T16:10:59.772Z,4.53
2022-07-26T16:14:00.940Z,2.67
2022-07-26T16:17:03.001Z,2.75
2022-07-26T16:20:05.594Z,3.17
2022-07-26T16:23:06.668Z,3.10
2022-07-26T16:26:08.622Z,3.92
2022-07-26T16:29:10.241Z,2.60
2022-07-26T16:32:13.039Z,2.83
2022-07-26T16:35:14.065Z,2.83
2022-07-26T16:38:15.214Z,2.53
2022-07-26T16:41:16.062Z,3.13
2022-07-26T16:44:16.862Z,3.05
2022-07-26T16:47:18.375Z,4.65
2022-07-26T16:50:28.022Z,5.32
2022-07-26T16:53:29.236Z,4.20
2022-07-26T16:56:30.711Z,5.55
2022-07-26T16:59:31.923Z,3.83
2022-07-26T17:02:32.875Z,3.28
2022-07-26T17:05:34.152Z,2.85
2022-07-26T17:08:35.661Z,5.25
2022-07-26T17:11:36.360Z,2.78
2022-07-26T17:14:37.233Z,8.52
2022-07-26T17:17:38.631Z,3.55
2022-07-26T17:20:40.168Z,2.78
2022-07-26T17:23:41.329Z,2.92
2022-07-26T17:26:42.675Z,5.22
2022-07-26T17:29:43.992Z,5.90
2022-07-26T17:32:45.251Z,2.72
2022-07-26T17:35:46.568Z,2.63
2022-07-26T17:38:47.704Z,2.95
2022-07-26T17:41:50.158Z,3.30
2022-07-26T17:44:51.518Z,2.53
2022-07-26T17:47:52.283Z,3.05
2022-07-26T17:50:53.642Z,4.05
2022-07-26T17:53:54.547Z,4.72
2022-07-26T17:56:56.252Z,4.60
2022-07-26T17:59:57.251Z,3.53
2022-07-26T18:02:58.686Z,2.63
2022-07-26T18:06:00.300Z,2.67
2022-07-26T18:09:01.299Z,2.40
2022-07-26T18:12:02.639Z,2.45
2022-07-26T18:15:04.851Z,2.80
2022-07-26T18:18:07.849Z,3.33
2022-07-26T18:21:09.036Z,2.75
2022-07-26T18:24:16.936Z,3.08
2022-07-26T18:27:19.752Z,3.42
2022-07-26T18:30:21.191Z,3.47
2022-07-26T18:33:22.197Z,2.78
2022-07-26T18:36:23.240Z,3.03
2022-07-26T18:39:24.141Z,2.72
2022-07-26T18:42:26.152Z,2.75
2022-07-26T18:45:27.538Z,2.53
2022-07-26T18:48:28.298Z,2.90
2022-07-26T18:51:29.833Z,3.45
2022-07-26T18:54:32.559Z,2.85
2022-07-26T18:57:36.372Z,3.10
2022-07-26T19:00:37.537Z,5.32
2022-07-26T19:03:39.061Z,2.88
2022-07-26T19:06:40.671Z,4.72
2022-07-26T19:09:41.397Z,3.33
2022-07-26T19:12:43.851Z,4.30
2022-07-26T19:15:44.722Z,3.20
2022-07-26T19:18:50.088Z,3.22
2022-07-26T19:21:52.813Z,3.10
2022-07-26T19:24:53.657Z,3.35
2022-07-26T19:27:54.759Z,3.47
2022-07-26T19:30:56.096Z,3.17
2022-07-26T19:33:57.206Z,3.83
2022-07-26T19:36:58.757Z,3.78
2022-07-26T19:40:01.128Z,7.55
2022-07-26T19:43:02.166Z,5.53
2022-07-26T19:46:03.016Z,6.78
2022-07-26T19:49:05.059Z,4.25
2022-07-26T19:52:11.334Z,4.28
2022-07-26T19:55:12.607Z,3.30
2022-07-26T19:58:14.132Z,3.47
2022-07-26T20:01:16.453Z,3.78
2022-07-26T20:04:17.789Z,3.85
2022-07-26T20:07:19.860Z,3.80
2022-07-26T20:10:20.794Z,4.13
2022-07-26T20:13:21.690Z,4.18
2022-07-26T20:16:23.006Z,3.72
2022-07-26T20:19:25.141Z,4.57
2022-07-26T20:22:26.269Z,4.85
2022-07-26T20:25:27.083Z,3.00
2022-07-26T20:28:28.003Z,4.22
2022-07-26T20:31:28.725Z,2.35
2022-07-26T20:34:30.315Z,5.15
2022-07-26T20:37:31.347Z,2.88
2022-07-26T20:40:32.337Z,1.67
2022-07-26T20:43:33.792Z,1.60
2022-07-26T20:46:40.224Z,1.65
2022-07-26T20:49:41.104Z,3.25
2022-07-26T20:52:43.286Z,4.22
2022-07-26T20:55:44.277Z,1.90
2022-07-26T20:58:46.890Z,1.52
2022-07-26T21:01:48.402Z,2.10
2022-07-26T21:04:50.825Z,10.32
2022-07-26T21:07:58.961Z,1.92
2022-07-26T21:11:00.961Z,1.55
2022-07-26T21:14:02.328Z,5.22
2022-07-26T21:17:07.911Z,1.55
2022-07-26T21:20:12.299Z,2.08
2022-07-26T21:23:17.874Z,1.65
2022-07-26T21:26:20.146Z,1.50
2022-07-26T21:29:22.394Z,1.58
2022-07-26T21:32:24.557Z,1.92
2022-07-26T21:35:28.164Z,1.75
2022-07-26T21:38:32.093Z,1.30
2022-07-26T21:41:34.182Z,1.48
2022-07-26T21:44:35.384Z,2.95
2022-07-26T21:47:36.743Z,2.00
2022-07-26T21:50:37.622Z,4.60
2022-07-26T21:53:38.818Z,1.40
2022-07-26T21:56:39.745Z,1.92
2022-07-26T21:59:40.710Z,3.22
2022-07-26T22:02:42.273Z,1.40
2022-07-26T22:05:43.684Z,1.60
2022-07-26T22:08:45.488Z,2.45
2022-07-26T22:11:46.543Z,1.27
2022-07-26T22:14:47.564Z,1.50
2022-07-26T22:17:48.475Z,2.58
2022-07-26T22:20:50.469Z,2.20
2022-07-26T22:23:51.320Z,1.60
2022-07-26T22:26:52.072Z,1.80
2022-07-26T22:29:52.910Z,2.03
2022-07-26T22:32:53.851Z,1.70
2022-07-26T22:35:55.242Z,1.92
2022-07-26T22:38:56.444Z,2.03
2022-07-26T22:42:14.997Z,2.00
2022-07-26T22:45:17.135Z,1.85
2022-07-26T22:48:18.485Z,1.75
2022-07-26T22:51:19.460Z,1.77
2022-07-26T22:54:20.258Z,1.40
2022-07-26T22:57:21.093Z,1.90
2022-07-26T23:00:22.581Z,2.13
2022-07-26T23:03:23.374Z,3.75
2022-07-26T23:06:31.560Z,1.40
2022-07-26T23:09:33.239Z,3.05
2022-07-26T23:12:34.696Z,1.88
2022-07-26T23:15:35.624Z,1.45
2022-07-26T23:18:36.642Z,1.10
2022-07-26T23:21:37.595Z,1.92
2022-07-26T23:24:38.807Z,1.58
2022-07-26T23:27:45.802Z,1.25
2022-07-26T23:30:46.636Z,3.63
2022-07-26T23:33:53.453Z,3.38
2022-07-26T23:36:55.022Z,2.30
2022-07-26T23:39:56.408Z,2.15
2022-07-26T23:42:57.342Z,2.30
2022-07-26T23:45:58.643Z,3.03
2022-07-26T23:49:00.295Z,1.50
2022-07-26T23:52:01.635Z,3.70
2022-07-26T23:55:02.515Z,2.28
2022-07-26T23:58:05.096Z,1.38
